sensor_id;sensor_type;location;lat;lon;timestamp;P1;durP1;ratioP1;P2;durP2;ratioP2
51724;SDS011;37801;53.224;6.552;2023-04-03T00:02:21;2.72;;;1.20;;
51724;SDS011;37801;53.224;6.552;2023-04-03T00:04:47;3.33;;;0.90;;
51724;SDS011;37801;53.224;6.552;2023-04-03T00:07:13;2.85;;;1.00;;
51724;SDS011;37801;53.224;6.552;2023-04-03T00:09:40;2.45;;;1.00;;
51724;SDS011;37801;53.224;6.552;2023-04-03T00:12:06;2.80;;;0.90;;
51724;SDS011;37801;53.224;6.552;2023-04-03T00:14:32;3.67;;;1.50;;
51724;SDS011;37801;53.224;6.552;2023-04-03T00:16:58;2.20;;;0.88;;
51724;SDS011;37801;53.224;6.552;2023-04-03T00:19:24;3.00;;;0.95;;
51724;SDS011;37801;53.224;6.552;2023-04-03T00:21:51;2.50;;;0.95;;
51724;SDS011;37801;53.224;6.552;2023-04-03T00:24:18;3.05;;;0.98;;
51724;SDS011;37801;53.224;6.552;2023-04-03T00:26:45;3.58;;;1.10;;
51724;SDS011;37801;53.224;6.552;2023-04-03T00:29:11;2.58;;;0.90;;
51724;SDS011;37801;53.224;6.552;2023-04-03T00:31:37;2.75;;;0.80;;
51724;SDS011;37801;53.224;6.552;2023-04-03T00:34:03;2.70;;;0.85;;
51724;SDS011;37801;53.224;6.552;2023-04-03T00:36:29;2.05;;;0.95;;
51724;SDS011;37801;53.224;6.552;2023-04-03T00:38:55;2.22;;;0.70;;
51724;SDS011;37801;53.224;6.552;2023-04-03T00:41:22;2.90;;;0.90;;
51724;SDS011;37801;53.224;6.552;2023-04-03T00:43:48;3.83;;;0.90;;
51724;SDS011;37801;53.224;6.552;2023-04-03T00:46:14;3.63;;;0.90;;
51724;SDS011;37801;53.224;6.552;2023-04-03T00:48:41;3.33;;;1.10;;
51724;SDS011;37801;53.224;6.552;2023-04-03T00:51:09;2.15;;;0.82;;
51724;SDS011;37801;53.224;6.552;2023-04-03T00:53:38;3.08;;;1.08;;
51724;SDS011;37801;53.224;6.552;2023-04-03T00:56:06;3.80;;;0.93;;
51724;SDS011;37801;53.224;6.552;2023-04-03T00:58:37;2.05;;;0.77;;
51724;SDS011;37801;53.224;6.552;2023-04-03T01:01:07;1.98;;;0.82;;
51724;SDS011;37801;53.224;6.552;2023-04-03T01:03:33;2.97;;;0.98;;
51724;SDS011;37801;53.224;6.552;2023-04-03T01:06:00;3.15;;;1.00;;
51724;SDS011;37801;53.224;6.552;2023-04-03T01:08:26;2.63;;;1.08;;
51724;SDS011;37801;53.224;6.552;2023-04-03T01:10:52;4.22;;;1.25;;
51724;SDS011;37801;53.224;6.552;2023-04-03T01:13:23;2.15;;;0.88;;
51724;SDS011;37801;53.224;6.552;2023-04-03T01:15:51;3.03;;;1.05;;
51724;SDS011;37801;53.224;6.552;2023-04-03T01:18:17;4.53;;;1.10;;
51724;SDS011;37801;53.224;6.552;2023-04-03T01:20:48;2.70;;;0.85;;
51724;SDS011;37801;53.224;6.552;2023-04-03T01:26:01;7.60;;;1.10;;
51724;SDS011;37801;53.224;6.552;2023-04-03T01:28:29;3.45;;;0.95;;
51724;SDS011;37801;53.224;6.552;2023-04-03T01:33:28;4.45;;;1.00;;
51724;SDS011;37801;53.224;6.552;2023-04-03T01:35:55;4.20;;;1.23;;
51724;SDS011;37801;53.224;6.552;2023-04-03T01:38:21;3.50;;;0.90;;
51724;SDS011;37801;53.224;6.552;2023-04-03T01:40:47;3.53;;;1.17;;
51724;SDS011;37801;53.224;6.552;2023-04-03T01:43:13;4.68;;;1.23;;
51724;SDS011;37801;53.224;6.552;2023-04-03T01:45:40;3.80;;;1.20;;
51724;SDS011;37801;53.224;6.552;2023-04-03T01:48:06;5.15;;;1.60;;
51724;SDS011;37801;53.224;6.552;2023-04-03T01:50:32;3.72;;;1.10;;
51724;SDS011;37801;53.224;6.552;2023-04-03T01:52:59;7.28;;;1.50;;
51724;SDS011;37801;53.224;6.552;2023-04-03T01:55:25;5.65;;;1.40;;
51724;SDS011;37801;53.224;6.552;2023-04-03T01:57:51;3.20;;;1.15;;
51724;SDS011;37801;53.224;6.552;2023-04-03T02:00:17;6.90;;;1.45;;
51724;SDS011;37801;53.224;6.552;2023-04-03T02:02:44;3.28;;;1.02;;
51724;SDS011;37801;53.224;6.552;2023-04-03T02:05:10;5.07;;;1.20;;
51724;SDS011;37801;53.224;6.552;2023-04-03T02:07:36;4.50;;;1.27;;
51724;SDS011;37801;53.224;6.552;2023-04-03T02:10:02;3.38;;;1.15;;
51724;SDS011;37801;53.224;6.552;2023-04-03T02:12:28;7.18;;;1.33;;
51724;SDS011;37801;53.224;6.552;2023-04-03T02:14:55;3.88;;;1.25;;
51724;SDS011;37801;53.224;6.552;2023-04-03T02:17:21;2.08;;;0.95;;
51724;SDS011;37801;53.224;6.552;2023-04-03T02:19:47;5.20;;;1.15;;
51724;SDS011;37801;53.224;6.552;2023-04-03T02:22:13;4.72;;;1.20;;
51724;SDS011;37801;53.224;6.552;2023-04-03T02:24:39;3.83;;;1.15;;
51724;SDS011;37801;53.224;6.552;2023-04-03T02:27:06;3.80;;;1.27;;
51724;SDS011;37801;53.224;6.552;2023-04-03T02:29:32;7.25;;;1.20;;
51724;SDS011;37801;53.224;6.552;2023-04-03T02:31:58;3.83;;;0.98;;
51724;SDS011;37801;53.224;6.552;2023-04-03T02:34:25;4.22;;;1.08;;
51724;SDS011;37801;53.224;6.552;2023-04-03T02:36:51;3.40;;;1.58;;
51724;SDS011;37801;53.224;6.552;2023-04-03T02:39:17;4.55;;;1.30;;
51724;SDS011;37801;53.224;6.552;2023-04-03T02:41:43;5.32;;;1.60;;
51724;SDS011;37801;53.224;6.552;2023-04-03T02:44:10;3.47;;;1.30;;
51724;SDS011;37801;53.224;6.552;2023-04-03T02:46:37;3.45;;;1.30;;
51724;SDS011;37801;53.224;6.552;2023-04-03T02:49:04;5.38;;;1.45;;
51724;SDS011;37801;53.224;6.552;2023-04-03T02:51:30;5.97;;;1.73;;
51724;SDS011;37801;53.224;6.552;2023-04-03T02:53:57;3.58;;;1.27;;
51724;SDS011;37801;53.224;6.552;2023-04-03T02:56:23;5.40;;;1.35;;
51724;SDS011;37801;53.224;6.552;2023-04-03T02:58:49;3.75;;;1.35;;
51724;SDS011;37801;53.224;6.552;2023-04-03T03:01:15;4.63;;;1.35;;
51724;SDS011;37801;53.224;6.552;2023-04-03T03:03:41;4.03;;;1.48;;
51724;SDS011;37801;53.224;6.552;2023-04-03T03:06:09;3.80;;;1.23;;
51724;SDS011;37801;53.224;6.552;2023-04-03T03:08:36;7.13;;;1.52;;
51724;SDS011;37801;53.224;6.552;2023-04-03T03:11:02;4.43;;;1.20;;
51724;SDS011;37801;53.224;6.552;2023-04-03T03:13:29;5.28;;;1.40;;
51724;SDS011;37801;53.224;6.552;2023-04-03T03:15:55;3.42;;;1.30;;
51724;SDS011;37801;53.224;6.552;2023-04-03T03:18:22;4.72;;;1.60;;
51724;SDS011;37801;53.224;6.552;2023-04-03T03:20:51;4.30;;;1.40;;
51724;SDS011;37801;53.224;6.552;2023-04-03T03:23:18;5.50;;;1.40;;
51724;SDS011;37801;53.224;6.552;2023-04-03T03:25:44;4.03;;;1.33;;
51724;SDS011;37801;53.224;6.552;2023-04-03T03:28:10;6.55;;;1.27;;
51724;SDS011;37801;53.224;6.552;2023-04-03T03:30:36;3.88;;;1.50;;
51724;SDS011;37801;53.224;6.552;2023-04-03T03:33:03;4.70;;;1.67;;
51724;SDS011;37801;53.224;6.552;2023-04-03T03:35:29;5.60;;;1.20;;
51724;SDS011;37801;53.224;6.552;2023-04-03T03:37:55;4.68;;;1.58;;
51724;SDS011;37801;53.224;6.552;2023-04-03T03:40:21;6.20;;;1.35;;
51724;SDS011;37801;53.224;6.552;2023-04-03T03:42:47;3.78;;;1.40;;
51724;SDS011;37801;53.224;6.552;2023-04-03T03:45:13;4.50;;;1.60;;
51724;SDS011;37801;53.224;6.552;2023-04-03T03:47:40;4.00;;;1.40;;
51724;SDS011;37801;53.224;6.552;2023-04-03T03:50:06;6.30;;;1.85;;
51724;SDS011;37801;53.224;6.552;2023-04-03T03:52:32;3.72;;;1.40;;
51724;SDS011;37801;53.224;6.552;2023-04-03T03:54:59;5.32;;;1.38;;
51724;SDS011;37801;53.224;6.552;2023-04-03T03:57:25;5.85;;;1.60;;
51724;SDS011;37801;53.224;6.552;2023-04-03T03:59:53;4.65;;;1.20;;
51724;SDS011;37801;53.224;6.552;2023-04-03T04:02:20;4.45;;;1.60;;
51724;SDS011;37801;53.224;6.552;2023-04-03T04:04:46;4.55;;;1.27;;
51724;SDS011;37801;53.224;6.552;2023-04-03T04:07:12;4.80;;;1.38;;
51724;SDS011;37801;53.224;6.552;2023-04-03T04:09:38;3.88;;;1.58;;
51724;SDS011;37801;53.224;6.552;2023-04-03T04:12:05;7.80;;;1.70;;
51724;SDS011;37801;53.224;6.552;2023-04-03T04:14:31;6.10;;;1.80;;
51724;SDS011;37801;53.224;6.552;2023-04-03T04:16:57;4.60;;;1.73;;
51724;SDS011;37801;53.224;6.552;2023-04-03T04:19:23;4.80;;;1.40;;
51724;SDS011;37801;53.224;6.552;2023-04-03T04:21:49;7.72;;;1.67;;
51724;SDS011;37801;53.224;6.552;2023-04-03T04:24:15;4.80;;;1.58;;
51724;SDS011;37801;53.224;6.552;2023-04-03T04:26:42;4.57;;;1.63;;
51724;SDS011;37801;53.224;6.552;2023-04-03T04:29:08;6.07;;;1.55;;
51724;SDS011;37801;53.224;6.552;2023-04-03T04:31:35;3.53;;;1.52;;
51724;SDS011;37801;53.224;6.552;2023-04-03T04:34:01;7.47;;;1.77;;
51724;SDS011;37801;53.224;6.552;2023-04-03T04:36:27;7.60;;;2.38;;
51724;SDS011;37801;53.224;6.552;2023-04-03T04:38:53;5.28;;;1.80;;
51724;SDS011;37801;53.224;6.552;2023-04-03T04:41:20;3.20;;;1.30;;
51724;SDS011;37801;53.224;6.552;2023-04-03T04:43:48;4.43;;;1.60;;
51724;SDS011;37801;53.224;6.552;2023-04-03T04:46:14;4.95;;;1.45;;
51724;SDS011;37801;53.224;6.552;2023-04-03T04:48:40;4.95;;;1.55;;
51724;SDS011;37801;53.224;6.552;2023-04-03T04:51:06;6.20;;;1.92;;
51724;SDS011;37801;53.224;6.552;2023-04-03T04:53:32;4.53;;;1.60;;
51724;SDS011;37801;53.224;6.552;2023-04-03T04:55:58;4.55;;;1.70;;
51724;SDS011;37801;53.224;6.552;2023-04-03T04:58:25;7.68;;;1.95;;
51724;SDS011;37801;53.224;6.552;2023-04-03T05:01:04;6.20;;;1.88;;
51724;SDS011;37801;53.224;6.552;2023-04-03T05:03:31;4.00;;;1.63;;
51724;SDS011;37801;53.224;6.552;2023-04-03T05:05:58;6.78;;;2.10;;
51724;SDS011;37801;53.224;6.552;2023-04-03T05:08:24;5.07;;;1.98;;
51724;SDS011;37801;53.224;6.552;2023-04-03T05:10:50;6.53;;;1.95;;
51724;SDS011;37801;53.224;6.552;2023-04-03T05:13:16;5.70;;;2.20;;
51724;SDS011;37801;53.224;6.552;2023-04-03T05:15:43;6.75;;;2.03;;
51724;SDS011;37801;53.224;6.552;2023-04-03T05:18:09;6.25;;;2.05;;
51724;SDS011;37801;53.224;6.552;2023-04-03T05:20:35;6.50;;;1.88;;
51724;SDS011;37801;53.224;6.552;2023-04-03T05:23:02;4.05;;;1.92;;
51724;SDS011;37801;53.224;6.552;2023-04-03T05:25:28;5.18;;;1.95;;
51724;SDS011;37801;53.224;6.552;2023-04-03T05:27:55;4.68;;;1.67;;
51724;SDS011;37801;53.224;6.552;2023-04-03T05:30:21;6.57;;;1.95;;
51724;SDS011;37801;53.224;6.552;2023-04-03T05:32:47;5.82;;;2.08;;
51724;SDS011;37801;53.224;6.552;2023-04-03T05:35:14;6.03;;;2.03;;
51724;SDS011;37801;53.224;6.552;2023-04-03T05:37:40;4.75;;;1.85;;
51724;SDS011;37801;53.224;6.552;2023-04-03T05:40:07;8.30;;;2.10;;
51724;SDS011;37801;53.224;6.552;2023-04-03T05:42:33;5.20;;;1.95;;
51724;SDS011;37801;53.224;6.552;2023-04-03T05:45:00;4.05;;;1.75;;
51724;SDS011;37801;53.224;6.552;2023-04-03T05:47:26;6.97;;;2.05;;
51724;SDS011;37801;53.224;6.552;2023-04-03T05:49:52;6.72;;;3.03;;
51724;SDS011;37801;53.224;6.552;2023-04-03T05:54:47;9.25;;;3.72;;
51724;SDS011;37801;53.224;6.552;2023-04-03T05:57:14;8.48;;;4.28;;
51724;SDS011;37801;53.224;6.552;2023-04-03T05:59:41;7.75;;;3.45;;
51724;SDS011;37801;53.224;6.552;2023-04-03T06:02:10;6.03;;;3.67;;
51724;SDS011;37801;53.224;6.552;2023-04-03T06:04:36;6.57;;;2.80;;
51724;SDS011;37801;53.224;6.552;2023-04-03T06:07:03;7.70;;;2.33;;
51724;SDS011;37801;53.224;6.552;2023-04-03T06:09:29;7.93;;;2.10;;
51724;SDS011;37801;53.224;6.552;2023-04-03T06:11:56;5.72;;;2.10;;
51724;SDS011;37801;53.224;6.552;2023-04-03T06:14:26;5.88;;;2.28;;
51724;SDS011;37801;53.224;6.552;2023-04-03T06:16:53;6.97;;;2.33;;
51724;SDS011;37801;53.224;6.552;2023-04-03T06:19:19;8.35;;;2.70;;
51724;SDS011;37801;53.224;6.552;2023-04-03T06:21:46;6.68;;;2.08;;
51724;SDS011;37801;53.224;6.552;2023-04-03T06:24:14;6.22;;;2.00;;
51724;SDS011;37801;53.224;6.552;2023-04-03T06:26:41;7.15;;;2.53;;
51724;SDS011;37801;53.224;6.552;2023-04-03T06:29:07;5.88;;;2.17;;
51724;SDS011;37801;53.224;6.552;2023-04-03T06:31:33;5.35;;;2.38;;
51724;SDS011;37801;53.224;6.552;2023-04-03T06:34:01;6.47;;;2.10;;
51724;SDS011;37801;53.224;6.552;2023-04-03T06:36:27;4.78;;;1.58;;
51724;SDS011;37801;53.224;6.552;2023-04-03T06:38:54;5.35;;;1.98;;
51724;SDS011;37801;53.224;6.552;2023-04-03T06:41:20;5.88;;;2.00;;
51724;SDS011;37801;53.224;6.552;2023-04-03T06:43:47;9.85;;;2.35;;
51724;SDS011;37801;53.224;6.552;2023-04-03T06:46:16;4.47;;;2.00;;
51724;SDS011;37801;53.224;6.552;2023-04-03T06:48:43;6.80;;;2.00;;
51724;SDS011;37801;53.224;6.552;2023-04-03T06:51:22;6.40;;;2.13;;
51724;SDS011;37801;53.224;6.552;2023-04-03T06:53:50;7.13;;;2.28;;
51724;SDS011;37801;53.224;6.552;2023-04-03T06:56:16;4.82;;;2.20;;
51724;SDS011;37801;53.224;6.552;2023-04-03T06:58:43;7.38;;;2.42;;
51724;SDS011;37801;53.224;6.552;2023-04-03T07:01:10;5.63;;;2.08;;
51724;SDS011;37801;53.224;6.552;2023-04-03T07:03:37;5.82;;;2.22;;
51724;SDS011;37801;53.224;6.552;2023-04-03T07:06:04;7.55;;;2.60;;
51724;SDS011;37801;53.224;6.552;2023-04-03T07:08:32;6.75;;;2.47;;
51724;SDS011;37801;53.224;6.552;2023-04-03T07:10:58;3.80;;;2.13;;
51724;SDS011;37801;53.224;6.552;2023-04-03T07:13:24;7.38;;;2.22;;
51724;SDS011;37801;53.224;6.552;2023-04-03T07:15:51;6.95;;;2.33;;
51724;SDS011;37801;53.224;6.552;2023-04-03T07:18:18;4.55;;;1.92;;
51724;SDS011;37801;53.224;6.552;2023-04-03T07:20:44;5.57;;;2.38;;
51724;SDS011;37801;53.224;6.552;2023-04-03T07:23:10;7.65;;;2.10;;
51724;SDS011;37801;53.224;6.552;2023-04-03T07:25:36;4.95;;;1.98;;
51724;SDS011;37801;53.224;6.552;2023-04-03T07:28:03;5.63;;;2.17;;
51724;SDS011;37801;53.224;6.552;2023-04-03T07:30:29;6.45;;;2.28;;
51724;SDS011;37801;53.224;6.552;2023-04-03T07:32:55;5.55;;;2.10;;
51724;SDS011;37801;53.224;6.552;2023-04-03T07:35:21;7.07;;;2.65;;
51724;SDS011;37801;53.224;6.552;2023-04-03T07:37:48;7.38;;;2.30;;
51724;SDS011;37801;53.224;6.552;2023-04-03T07:40:14;5.93;;;2.17;;
51724;SDS011;37801;53.224;6.552;2023-04-03T07:42:40;5.40;;;1.77;;
51724;SDS011;37801;53.224;6.552;2023-04-03T07:45:07;7.65;;;2.60;;
51724;SDS011;37801;53.224;6.552;2023-04-03T07:47:33;6.55;;;2.20;;
51724;SDS011;37801;53.224;6.552;2023-04-03T07:49:59;5.43;;;1.80;;
51724;SDS011;37801;53.224;6.552;2023-04-03T07:52:25;8.02;;;2.50;;
51724;SDS011;37801;53.224;6.552;2023-04-03T07:54:51;5.38;;;1.85;;
51724;SDS011;37801;53.224;6.552;2023-04-03T07:57:17;6.40;;;2.13;;
51724;SDS011;37801;53.224;6.552;2023-04-03T07:59:44;5.53;;;1.75;;
51724;SDS011;37801;53.224;6.552;2023-04-03T08:02:10;8.18;;;2.45;;
51724;SDS011;37801;53.224;6.552;2023-04-03T08:04:36;6.78;;;2.10;;
51724;SDS011;37801;53.224;6.552;2023-04-03T08:07:02;5.88;;;2.30;;
51724;SDS011;37801;53.224;6.552;2023-04-03T08:09:28;6.63;;;2.00;;
51724;SDS011;37801;53.224;6.552;2023-04-03T08:11:55;4.93;;;2.17;;
51724;SDS011;37801;53.224;6.552;2023-04-03T08:14:21;7.25;;;1.83;;
51724;SDS011;37801;53.224;6.552;2023-04-03T08:16:47;5.65;;;2.08;;
51724;SDS011;37801;53.224;6.552;2023-04-03T08:19:15;5.90;;;2.20;;
51724;SDS011;37801;53.224;6.552;2023-04-03T08:21:43;6.85;;;2.20;;
51724;SDS011;37801;53.224;6.552;2023-04-03T08:24:09;8.38;;;2.08;;
51724;SDS011;37801;53.224;6.552;2023-04-03T08:26:35;3.75;;;1.75;;
51724;SDS011;37801;53.224;6.552;2023-04-03T08:29:02;5.78;;;2.00;;
51724;SDS011;37801;53.224;6.552;2023-04-03T08:31:28;5.13;;;2.00;;
51724;SDS011;37801;53.224;6.552;2023-04-03T08:33:56;6.70;;;1.98;;
51724;SDS011;37801;53.224;6.552;2023-04-03T08:36:23;6.35;;;2.10;;
51724;SDS011;37801;53.224;6.552;2023-04-03T08:38:50;5.82;;;1.67;;
51724;SDS011;37801;53.224;6.552;2023-04-03T08:44:03;5.13;;;1.95;;
51724;SDS011;37801;53.224;6.552;2023-04-03T08:46:37;7.00;;;1.88;;
51724;SDS011;37801;53.224;6.552;2023-04-03T08:49:10;7.03;;;2.10;;
51724;SDS011;37801;53.224;6.552;2023-04-03T08:51:37;4.80;;;1.92;;
51724;SDS011;37801;53.224;6.552;2023-04-03T08:54:06;4.75;;;1.48;;
51724;SDS011;37801;53.224;6.552;2023-04-03T08:56:38;3.05;;;1.40;;
51724;SDS011;37801;53.224;6.552;2023-04-03T08:59:09;5.05;;;1.70;;
51724;SDS011;37801;53.224;6.552;2023-04-03T09:01:38;3.05;;;1.20;;
51724;SDS011;37801;53.224;6.552;2023-04-03T09:04:11;3.55;;;1.15;;
51724;SDS011;37801;53.224;6.552;2023-04-03T09:06:38;3.53;;;1.52;;
51724;SDS011;37801;53.224;6.552;2023-04-03T09:09:50;3.15;;;0.90;;
51724;SDS011;37801;53.224;6.552;2023-04-03T09:11:57;4.38;;;1.23;;
51724;SDS011;37801;53.224;6.552;2023-04-03T09:14:32;3.67;;;1.38;;
51724;SDS011;37801;53.224;6.552;2023-04-03T09:17:03;4.30;;;1.05;;
51724;SDS011;37801;53.224;6.552;2023-04-03T09:21:57;3.33;;;0.93;;
51724;SDS011;37801;53.224;6.552;2023-04-03T09:24:24;5.30;;;1.20;;
51724;SDS011;37801;53.224;6.552;2023-04-03T09:26:56;3.17;;;1.15;;
51724;SDS011;37801;53.224;6.552;2023-04-03T09:29:25;3.72;;;1.30;;
51724;SDS011;37801;53.224;6.552;2023-04-03T09:31:59;2.97;;;1.00;;
51724;SDS011;37801;53.224;6.552;2023-04-03T09:34:26;3.28;;;1.40;;
51724;SDS011;37801;53.224;6.552;2023-04-03T09:36:57;4.15;;;1.58;;
51724;SDS011;37801;53.224;6.552;2023-04-03T09:39:25;3.83;;;1.30;;
51724;SDS011;37801;53.224;6.552;2023-04-03T09:42:02;4.70;;;1.45;;
51724;SDS011;37801;53.224;6.552;2023-04-03T09:44:38;3.05;;;1.00;;
51724;SDS011;37801;53.224;6.552;2023-04-03T09:49:49;2.28;;;0.82;;
51724;SDS011;37801;53.224;6.552;2023-04-03T09:52:20;4.30;;;1.40;;
51724;SDS011;37801;53.224;6.552;2023-04-03T09:54:48;3.38;;;1.38;;
51724;SDS011;37801;53.224;6.552;2023-04-03T09:57:14;3.35;;;0.93;;
51724;SDS011;37801;53.224;6.552;2023-04-03T09:59:46;3.55;;;1.20;;
51724;SDS011;37801;53.224;6.552;2023-04-03T10:02:21;3.33;;;1.27;;
51724;SDS011;37801;53.224;6.552;2023-04-03T10:04:48;3.47;;;1.20;;
51724;SDS011;37801;53.224;6.552;2023-04-03T10:09:56;5.07;;;1.40;;
51724;SDS011;37801;53.224;6.552;2023-04-03T10:12:23;2.72;;;1.10;;
51724;SDS011;37801;53.224;6.552;2023-04-03T10:17:20;2.40;;;1.05;;
51724;SDS011;37801;53.224;6.552;2023-04-03T10:19:51;1.73;;;0.80;;
51724;SDS011;37801;53.224;6.552;2023-04-03T10:30:30;4.30;;;1.08;;
51724;SDS011;37801;53.224;6.552;2023-04-03T10:40:57;3.55;;;1.08;;
51724;SDS011;37801;53.224;6.552;2023-04-03T10:43:42;3.90;;;1.17;;
51724;SDS011;37801;53.224;6.552;2023-04-03T10:46:21;2.38;;;0.88;;
51724;SDS011;37801;53.224;6.552;2023-04-03T10:49:35;4.10;;;1.25;;
51724;SDS011;37801;53.224;6.552;2023-04-03T10:51:45;4.57;;;1.48;;
51724;SDS011;37801;53.224;6.552;2023-04-03T10:54:16;4.15;;;1.10;;
51724;SDS011;37801;53.224;6.552;2023-04-03T10:56:50;4.03;;;1.65;;
51724;SDS011;37801;53.224;6.552;2023-04-03T10:59:23;3.28;;;1.17;;
51724;SDS011;37801;53.224;6.552;2023-04-03T11:01:52;3.67;;;1.25;;
51724;SDS011;37801;53.224;6.552;2023-04-03T11:04:19;4.72;;;1.60;;
51724;SDS011;37801;53.224;6.552;2023-04-03T11:06:49;2.55;;;1.15;;
51724;SDS011;37801;53.224;6.552;2023-04-03T11:09:22;3.03;;;1.25;;
51724;SDS011;37801;53.224;6.552;2023-04-03T11:11:49;2.60;;;0.90;;
51724;SDS011;37801;53.224;6.552;2023-04-03T11:14:21;4.35;;;1.20;;
51724;SDS011;37801;53.224;6.552;2023-04-03T11:16:53;3.42;;;1.17;;
51724;SDS011;37801;53.224;6.552;2023-04-03T11:24:57;2.80;;;0.90;;
51724;SDS011;37801;53.224;6.552;2023-04-03T11:27:25;2.47;;;0.90;;
51724;SDS011;37801;53.224;6.552;2023-04-03T11:29:55;2.83;;;0.95;;
51724;SDS011;37801;53.224;6.552;2023-04-03T11:34:58;3.67;;;1.13;;
51724;SDS011;37801;53.224;6.552;2023-04-03T11:37:36;3.05;;;0.90;;
51724;SDS011;37801;53.224;6.552;2023-04-03T11:40:06;1.83;;;0.80;;
51724;SDS011;37801;53.224;6.552;2023-04-03T11:42:37;2.55;;;0.88;;
51724;SDS011;37801;53.224;6.552;2023-04-03T11:47:47;4.03;;;1.00;;
51724;SDS011;37801;53.224;6.552;2023-04-03T11:53:44;2.85;;;0.90;;
51724;SDS011;37801;53.224;6.552;2023-04-03T11:58:18;2.10;;;0.80;;
51724;SDS011;37801;53.224;6.552;2023-04-03T12:00:45;3.97;;;1.08;;
51724;SDS011;37801;53.224;6.552;2023-04-03T12:18:58;4.03;;;1.50;;
51724;SDS011;37801;53.224;6.552;2023-04-03T12:34:44;4.82;;;1.40;;
51724;SDS011;37801;53.224;6.552;2023-04-03T12:37:19;2.53;;;1.17;;
51724;SDS011;37801;53.224;6.552;2023-04-03T12:42:24;2.58;;;1.20;;
51724;SDS011;37801;53.224;6.552;2023-04-03T12:47:34;5.72;;;0.90;;
51724;SDS011;37801;53.224;6.552;2023-04-03T12:50:03;2.40;;;0.93;;
51724;SDS011;37801;53.224;6.552;2023-04-03T12:52:37;2.90;;;0.90;;
51724;SDS011;37801;53.224;6.552;2023-04-03T12:55:16;3.30;;;0.88;;
51724;SDS011;37801;53.224;6.552;2023-04-03T12:57:42;1.92;;;0.90;;
51724;SDS011;37801;53.224;6.552;2023-04-03T13:02:47;2.90;;;1.02;;
51724;SDS011;37801;53.224;6.552;2023-04-03T13:05:15;5.10;;;0.98;;
51724;SDS011;37801;53.224;6.552;2023-04-03T13:07:42;3.38;;;1.15;;
51724;SDS011;37801;53.224;6.552;2023-04-03T13:17:45;3.85;;;0.90;;
51724;SDS011;37801;53.224;6.552;2023-04-03T13:22:53;2.15;;;0.75;;
51724;SDS011;37801;53.224;6.552;2023-04-03T13:25:22;2.90;;;1.02;;
51724;SDS011;37801;53.224;6.552;2023-04-03T13:27:48;1.33;;;0.68;;
51724;SDS011;37801;53.224;6.552;2023-04-03T13:30:18;2.75;;;0.98;;
51724;SDS011;37801;53.224;6.552;2023-04-03T13:32:45;3.47;;;0.85;;
51724;SDS011;37801;53.224;6.552;2023-04-03T13:37:57;2.13;;;0.77;;
51724;SDS011;37801;53.224;6.552;2023-04-03T13:40:24;2.55;;;0.85;;
51724;SDS011;37801;53.224;6.552;2023-04-03T13:43:05;3.28;;;0.98;;
51724;SDS011;37801;53.224;6.552;2023-04-03T13:45:33;2.22;;;0.77;;
51724;SDS011;37801;53.224;6.552;2023-04-03T13:48:11;3.80;;;1.05;;
51724;SDS011;37801;53.224;6.552;2023-04-03T13:53:27;2.45;;;1.00;;
51724;SDS011;37801;53.224;6.552;2023-04-03T13:58:27;4.30;;;1.00;;
51724;SDS011;37801;53.224;6.552;2023-04-03T14:00:55;3.80;;;1.02;;
51724;SDS011;37801;53.224;6.552;2023-04-03T14:05:47;4.25;;;1.35;;
51724;SDS011;37801;53.224;6.552;2023-04-03T14:08:13;3.67;;;1.02;;
51724;SDS011;37801;53.224;6.552;2023-04-03T14:10:41;4.00;;;1.15;;
51724;SDS011;37801;53.224;6.552;2023-04-03T14:13:09;5.57;;;1.23;;
51724;SDS011;37801;53.224;6.552;2023-04-03T14:15:37;2.88;;;1.05;;
51724;SDS011;37801;53.224;6.552;2023-04-03T14:18:03;2.15;;;1.00;;
51724;SDS011;37801;53.224;6.552;2023-04-03T14:20:29;2.95;;;0.93;;
51724;SDS011;37801;53.224;6.552;2023-04-03T14:22:55;4.80;;;1.13;;
51724;SDS011;37801;53.224;6.552;2023-04-03T14:25:22;3.53;;;1.23;;
51724;SDS011;37801;53.224;6.552;2023-04-03T14:27:52;4.28;;;1.15;;
51724;SDS011;37801;53.224;6.552;2023-04-03T14:30:26;3.92;;;1.23;;
51724;SDS011;37801;53.224;6.552;2023-04-03T14:32:53;4.15;;;1.30;;
51724;SDS011;37801;53.224;6.552;2023-04-03T14:35:19;2.28;;;1.00;;
51724;SDS011;37801;53.224;6.552;2023-04-03T14:37:46;3.92;;;1.30;;
51724;SDS011;37801;53.224;6.552;2023-04-03T14:40:13;4.35;;;1.00;;
51724;SDS011;37801;53.224;6.552;2023-04-03T14:42:40;3.58;;;0.90;;
51724;SDS011;37801;53.224;6.552;2023-04-03T14:45:08;2.78;;;0.88;;
51724;SDS011;37801;53.224;6.552;2023-04-03T14:47:37;4.85;;;1.30;;
51724;SDS011;37801;53.224;6.552;2023-04-03T14:50:06;3.58;;;0.98;;
51724;SDS011;37801;53.224;6.552;2023-04-03T14:52:34;2.80;;;0.80;;
51724;SDS011;37801;53.224;6.552;2023-04-03T14:55:01;5.35;;;1.27;;
51724;SDS011;37801;53.224;6.552;2023-04-03T14:57:28;2.97;;;1.05;;
51724;SDS011;37801;53.224;6.552;2023-04-03T14:59:55;3.50;;;1.02;;
51724;SDS011;37801;53.224;6.552;2023-04-03T15:02:24;2.15;;;0.80;;
51724;SDS011;37801;53.224;6.552;2023-04-03T15:04:51;3.30;;;0.85;;
51724;SDS011;37801;53.224;6.552;2023-04-03T15:07:17;3.33;;;1.13;;
51724;SDS011;37801;53.224;6.552;2023-04-03T15:09:43;3.95;;;1.00;;
51724;SDS011;37801;53.224;6.552;2023-04-03T15:12:10;2.63;;;1.20;;
51724;SDS011;37801;53.224;6.552;2023-04-03T15:14:36;2.67;;;0.80;;
51724;SDS011;37801;53.224;6.552;2023-04-03T15:17:02;2.72;;;0.77;;
51724;SDS011;37801;53.224;6.552;2023-04-03T15:19:30;3.45;;;1.35;;
51724;SDS011;37801;53.224;6.552;2023-04-03T15:21:57;2.88;;;1.00;;
51724;SDS011;37801;53.224;6.552;2023-04-03T15:24:23;3.55;;;1.13;;
51724;SDS011;37801;53.224;6.552;2023-04-03T15:26:49;3.10;;;1.27;;
51724;SDS011;37801;53.224;6.552;2023-04-03T15:29:15;3.40;;;1.10;;
51724;SDS011;37801;53.224;6.552;2023-04-03T15:31:41;3.28;;;1.00;;
51724;SDS011;37801;53.224;6.552;2023-04-03T15:34:07;3.03;;;1.17;;
51724;SDS011;37801;53.224;6.552;2023-04-03T15:36:33;4.95;;;1.08;;
51724;SDS011;37801;53.224;6.552;2023-04-03T15:39:00;2.85;;;0.95;;
51724;SDS011;37801;53.224;6.552;2023-04-03T15:41:26;3.50;;;0.85;;
51724;SDS011;37801;53.224;6.552;2023-04-03T15:43:52;5.75;;;1.10;;
51724;SDS011;37801;53.224;6.552;2023-04-03T15:46:18;3.53;;;0.90;;
51724;SDS011;37801;53.224;6.552;2023-04-03T15:48:44;2.45;;;0.70;;
51724;SDS011;37801;53.224;6.552;2023-04-03T15:51:10;2.13;;;0.80;;
51724;SDS011;37801;53.224;6.552;2023-04-03T15:53:37;3.90;;;0.85;;
51724;SDS011;37801;53.224;6.552;2023-04-03T15:56:03;2.90;;;1.00;;
51724;SDS011;37801;53.224;6.552;2023-04-03T15:58:29;4.85;;;1.20;;
51724;SDS011;37801;53.224;6.552;2023-04-03T16:00:56;2.58;;;0.90;;
51724;SDS011;37801;53.224;6.552;2023-04-03T16:03:22;4.13;;;1.10;;
51724;SDS011;37801;53.224;6.552;2023-04-03T16:05:49;3.03;;;1.00;;
51724;SDS011;37801;53.224;6.552;2023-04-03T16:08:16;4.10;;;1.20;;
51724;SDS011;37801;53.224;6.552;2023-04-03T16:10:42;3.28;;;1.05;;
51724;SDS011;37801;53.224;6.552;2023-04-03T16:13:10;3.88;;;1.17;;
51724;SDS011;37801;53.224;6.552;2023-04-03T16:15:37;3.58;;;1.20;;
51724;SDS011;37801;53.224;6.552;2023-04-03T16:18:03;5.90;;;1.10;;
51724;SDS011;37801;53.224;6.552;2023-04-03T16:20:30;5.30;;;1.20;;
51724;SDS011;37801;53.224;6.552;2023-04-03T16:23:00;4.03;;;1.05;;
51724;SDS011;37801;53.224;6.552;2023-04-03T16:25:26;6.70;;;1.05;;
51724;SDS011;37801;53.224;6.552;2023-04-03T16:27:52;4.90;;;0.95;;
51724;SDS011;37801;53.224;6.552;2023-04-03T16:30:18;4.88;;;1.30;;
51724;SDS011;37801;53.224;6.552;2023-04-03T16:32:45;3.22;;;1.10;;
51724;SDS011;37801;53.224;6.552;2023-04-03T16:35:11;5.57;;;1.20;;
51724;SDS011;37801;53.224;6.552;2023-04-03T16:37:38;4.32;;;0.80;;
51724;SDS011;37801;53.224;6.552;2023-04-03T16:40:05;3.70;;;0.90;;
51724;SDS011;37801;53.224;6.552;2023-04-03T16:42:31;5.93;;;1.40;;